MDT,Max TemperatureF,Mean TemperatureF,Min TemperatureF,Max Dew PointF,MeanDew PointF,Min DewpointF,Max Humidity, Mean Humidity, Min Humidity, Max Sea Level PressureIn, Mean Sea Level PressureIn, Min Sea Level PressureIn, Max VisibilityMiles, Mean VisibilityMiles, Min VisibilityMiles, Max Wind SpeedMPH, Mean Wind SpeedMPH, Max Gust SpeedMPH,PrecipitationIn, CloudCover, Events, WindDirDegrees
2013-5-1,62,44,25,31,19,9,76,38,17,30.36,30.13,30.01,10,10,10,29,8,38,0.00,4,,227
2013-5-2,32,22,13,18,12,8,82,69,42,30.50,30.45,30.37,10,10,10,12,6,17,0.00,1,,354
2013-5-3,57,42,28,10,7,5,44,25,13,30.22,30.17,30.14,10,10,10,17,10,24,0.00,0,,245
2013-5-4,58,34,11,13,10,4,74,37,16,30.27,30.17,30.11,10,10,10,24,4,31,0.00,1,,126
2013-5-5,57,38,19,30,17,12,74,41,22,30.28,30.24,30.18,10,10,10,13,5,28,0.00,4,,199
2013-5-6,49,38,28,38,30,23,98,74,49,30.24,30.17,30.12,10,10,2,21,4,32,0.06,5,Rain,181
2013-5-7,60,46,32,34,28,23,94,58,24,30.20,30.13,30.08,10,10,5,17,7,25,0.00,2,Rain,239
2013-5-8,55,39,23,32,21,11,96,53,19,30.16,30.12,30.07,10,10,10,22,6,36,0.00,2,,251
2013-5-9,55,36,17,32,22,14,86,56,22,30.30,30.19,30.14,10,10,10,22,4,30,0.00,3,,275
2013-5-10,53,40,26,32,27,21,90,62,30,30.44,30.32,30.28,10,10,10,21,4,30,0.00,4,Rain,70
2013-5-11,55,39,23,34,28,22,93,67,29,30.51,30.47,30.43,10,10,10,23,4,32,0.00,5,Rain,92
2013-5-12,62,41,20,36,27,18,96,61,26,30.51,30.44,30.37,10,10,10,17,3,16,0.00,2,Rain,203
2013-5-13,70,46,21,34,26,19,91,54,16,30.49,30.43,30.37,10,10,10,21,2,26,0.00,2,,209
2013-5-14,68,46,23,39,30,20,90,58,22,30.40,30.29,30.20,10,10,10,20,2,30,0.00,1,Rain,265
2013-5-15,65,47,29,43,35,28,93,68,28,30.23,30.20,30.15,10,10,10,16,2,24,0.00,2,Rain,199
2013-5-16,70,48,25,38,23,14,99,51,13,30.23,30.17,30.09,10,8,0,21,4,36,0.00,2,Fog,262
2013-5-17,70,48,27,20,15,9,58,28,10,30.23,30.18,30.13,10,10,10,18,4,30,0.00,0,,239
2013-5-18,63,48,32,31,20,13,54,33,19,30.19,30.12,30.02,10,10,10,26,6,34,0.00,2,,251
2013-5-19,55,45,33,33,24,11,86,44,18,30.08,30.03,29.97,10,10,10,28,11,38,0.00,3,Rain,260
2013-5-20,58,44,28,32,25,16,83,56,21,30.15,30.07,30.02,10,10,10,23,6,36,0.00,3,Rain,262
2013-5-21,61,43,25,32,24,18,89,50,19,30.20,30.13,30.06,10,10,10,18,3,34,0.00,3,,257
2013-5-22,70,44,19,28,17,12,78,37,11,30.17,30.12,30.07,10,10,10,20,3,30,0.00,1,,254
2013-5-23,72,47,22,45,23,13,72,37,12,30.28,30.21,30.14,10,10,10,29,6,45,0.00,1,,168
2013-5-24,74,58,42,46,34,14,92,47,12,30.31,30.28,30.21,10,10,7,30,11,43,0.00,2,,201
2013-5-25,74,55,36,45,28,13,93,42,10,30.33,30.27,30.19,10,10,10,22,7,32,0.00,0,,224
2013-5-26,72,51,30,34,17,7,79,32,9,30.28,30.23,30.16,10,10,10,22,6,29,0.00,0,,249
2013-5-27,67,45,23,13,10,4,57,24,11,30.20,30.14,30.05,10,10,10,23,6,37,0.00,0,,253
2013-5-28,71,46,20,17,10,4,60,24,7,30.10,30.00,29.89,10,10,10,21,6,32,0.00,0,,228
2013-5-29,61,50,39,32,19,9,54,28,15,29.94,29.88,29.82,10,10,10,31,12,44,0.00,1,,266
2013-5-30,66,50,34,24,15,8,47,24,11,30.09,30.01,29.95,10,10,7,37,12,51,0.00,1,,260
2013-5-31,68,50,31,25,13,1,47,21,9,30.25,30.12,30.07,10,10,7,33,11,47,0.00,0,,259